Time;durP1;ratioP1;P1;durP2;ratioP2;P2;SDS_P1;SDS_P2;PMS_P1;PMS_P2;Temp;Humidity;BMP_temperature;BMP_pressure;BME280_temperature;BME280_humidity;BME280_pressure;Samples;Min_cycle;Max_cycle;Signal;HPM_P1;HPM_P2
2021/12/22 00:02:17;;;;;;;34.05;19.05;;;;;;;;;;5145532;27;20039;-55
2021/12/22 00:04:44;;;;;;;30.30;18.80;;;;;;;;;;5145508;27;20047;-54
2021/12/22 00:07:10;;;;;;;34.23;18.47;;;;;;;;;;5145475;27;20047;-56
2021/12/22 00:09:37;;;;;;;32.55;18.55;;;;;;;;;;5145476;27;20071;-57
2021/12/22 00:12:03;;;;;;;36.58;17.30;;;;;;;;;;5144537;27;20054;-56
2021/12/22 00:14:29;;;;;;;27.45;17.08;;;;;;;;;;5145641;27;20147;-55
2021/12/22 00:16:55;;;;;;;38.53;19.42;;;;;;;;;;5145443;27;20043;-56
2021/12/22 00:19:22;;;;;;;27.17;18.40;;;;;;;;;;5145471;27;20070;-55
2021/12/22 00:21:48;;;;;;;40.70;19.20;;;;;;;;;;5144797;27;20043;-56
2021/12/22 00:24:14;;;;;;;32.83;18.40;;;;;;;;;;5126948;28;20054;-56
2021/12/22 00:26:40;;;;;;;41.20;19.88;;;;;;;;;;5144731;28;20053;-55
2021/12/22 00:29:08;;;;;;;35.72;19.02;;;;;;;;;;5145433;28;20126;-56
2021/12/22 00:31:57;;;;;;;31.40;19.33;;;;;;;;;;5145196;28;20047;-55
2021/12/22 00:34:26;;;;;;;38.83;20.75;;;;;;;;;;5145133;28;20127;-55
2021/12/22 00:36:53;;;;;;;36.08;19.67;;;;;;;;;;5145322;28;20043;-54
2021/12/22 00:39:19;;;;;;;32.70;20.20;;;;;;;;;;5146866;27;20107;-56
2021/12/22 00:41:45;;;;;;;29.55;19.60;;;;;;;;;;5148721;27;20039;-53
2021/12/22 00:44:12;;;;;;;37.60;20.05;;;;;;;;;;5149373;27;20043;-55
2021/12/22 00:46:38;;;;;;;35.13;20.15;;;;;;;;;;5149370;27;20043;-54
2021/12/22 00:49:04;;;;;;;34.30;19.10;;;;;;;;;;5149601;27;20081;-55
2021/12/22 00:51:30;;;;;;;31.73;18.35;;;;;;;;;;5148894;27;20059;-54
2021/12/22 00:53:57;;;;;;;36.08;21.05;;;;;;;;;;5149098;27;20051;-55
2021/12/22 00:56:23;;;;;;;42.53;21.38;;;;;;;;;;5148581;27;20047;-55
2021/12/22 00:58:49;;;;;;;34.33;18.65;;;;;;;;;;5149285;27;20125;-54
2021/12/22 01:01:15;;;;;;;33.75;19.48;;;;;;;;;;5148844;27;20043;-55
2021/12/22 01:03:41;;;;;;;35.45;20.98;;;;;;;;;;5149290;27;20069;-56
2021/12/22 01:06:07;;;;;;;40.45;20.77;;;;;;;;;;5123562;28;20520;-53
2021/12/22 01:08:33;;;;;;;33.95;20.40;;;;;;;;;;5128092;28;20114;-54
2021/12/22 01:11:00;;;;;;;37.20;21.13;;;;;;;;;;5128773;27;20048;-55
2021/12/22 01:13:28;;;;;;;36.38;20.58;;;;;;;;;;5148700;27;20035;-54
2021/12/22 01:15:55;;;;;;;27.50;19.30;;;;;;;;;;5148706;27;20521;-54
2021/12/22 01:18:30;;;;;;;37.13;21.35;;;;;;;;;;5148827;27;20072;-53
2021/12/22 01:23:36;;;;;;;41.08;21.13;;;;;;;;;;5148806;27;20051;-53
2021/12/22 01:26:04;;;;;;;38.75;21.25;;;;;;;;;;5148340;27;20070;-54
2021/12/22 01:28:30;;;;;;;33.90;20.50;;;;;;;;;;5148381;27;20528;-54
2021/12/22 01:31:01;;;;;;;34.33;20.98;;;;;;;;;;5148425;27;20043;-53
2021/12/22 01:33:28;;;;;;;28.88;19.58;;;;;;;;;;5148421;27;20043;-56
2021/12/22 01:35:54;;;;;;;36.63;21.00;;;;;;;;;;5148165;27;20464;-53
2021/12/22 01:38:20;;;;;;;35.15;19.77;;;;;;;;;;5148491;27;20042;-53
2021/12/22 01:40:46;;;;;;;34.50;19.65;;;;;;;;;;5147993;27;20058;-54
2021/12/22 01:43:14;;;;;;;41.28;19.70;;;;;;;;;;5148345;27;20047;-54
2021/12/22 01:51:49;;;;;;;36.63;20.20;;;;;;;;;;5146318;27;20136;-52
2021/12/22 01:54:19;;;;;;;37.75;22.40;;;;;;;;;;5147087;28;20047;-54
2021/12/22 01:56:46;;;;;;;36.05;23.27;;;;;;;;;;5146978;28;20081;-54
2021/12/22 01:59:12;;;;;;;37.23;23.07;;;;;;;;;;5147102;28;20099;-55
2021/12/22 02:01:39;;;;;;;38.20;21.80;;;;;;;;;;5146487;28;20047;-55
2021/12/22 02:04:10;;;;;;;40.33;23.25;;;;;;;;;;5146451;28;20042;-56
2021/12/22 02:06:36;;;;;;;34.92;21.67;;;;;;;;;;5146215;28;20053;-54
2021/12/22 02:09:03;;;;;;;36.25;21.88;;;;;;;;;;5146798;28;20091;-53
2021/12/22 02:11:29;;;;;;;39.03;22.58;;;;;;;;;;5146879;28;20207;-53
2021/12/22 02:14:00;;;;;;;40.13;22.58;;;;;;;;;;5146570;28;20039;-54
2021/12/22 02:16:29;;;;;;;41.05;22.92;;;;;;;;;;5146567;28;20062;-56
2021/12/22 02:18:56;;;;;;;39.13;21.40;;;;;;;;;;5146309;28;20051;-56
2021/12/22 02:21:25;;;;;;;36.25;23.00;;;;;;;;;;5145869;28;20069;-55
2021/12/22 02:23:52;;;;;;;40.95;22.63;;;;;;;;;;5146282;28;20061;-55
2021/12/22 02:26:45;;;;;;;34.70;20.65;;;;;;;;;;5146594;28;20054;-55
2021/12/22 02:29:16;;;;;;;46.13;23.38;;;;;;;;;;5145832;28;20047;-54
2021/12/22 02:31:47;;;;;;;38.55;22.38;;;;;;;;;;5146252;28;20084;-54
2021/12/22 02:34:15;;;;;;;36.42;21.50;;;;;;;;;;5125787;28;20051;-55
2021/12/22 02:36:42;;;;;;;39.72;22.20;;;;;;;;;;5125008;28;20569;-54
2021/12/22 02:39:08;;;;;;;45.85;22.33;;;;;;;;;;5125540;28;20054;-53
2021/12/22 02:41:37;;;;;;;36.53;21.63;;;;;;;;;;5125265;28;20051;-55
2021/12/22 02:44:04;;;;;;;43.15;22.00;;;;;;;;;;5126087;28;20055;-54
2021/12/22 02:46:34;;;;;;;43.40;23.13;;;;;;;;;;5126162;28;20047;-54
2021/12/22 02:49:01;;;;;;;45.58;25.35;;;;;;;;;;5146010;28;20430;-53
2021/12/22 02:51:29;;;;;;;39.23;21.87;;;;;;;;;;5107045;27;1086460;-53
2021/12/22 02:59:04;;;;;;;43.78;23.65;;;;;;;;;;5147242;27;20088;-54
2021/12/22 03:04:10;;;;;;;36.38;21.83;;;;;;;;;;5146750;27;20043;-53
2021/12/22 03:06:41;;;;;;;37.85;21.23;;;;;;;;;;5146143;27;20058;-53
2021/12/22 03:09:18;;;;;;;39.92;20.67;;;;;;;;;;5146820;27;20047;-54
2021/12/22 03:11:44;;;;;;;41.15;23.58;;;;;;;;;;5146273;27;20448;-55
2021/12/22 03:14:11;;;;;;;49.40;23.42;;;;;;;;;;5146702;27;20039;-55
2021/12/22 03:16:37;;;;;;;35.58;22.25;;;;;;;;;;5146734;27;20072;-54
2021/12/22 03:19:03;;;;;;;37.17;20.42;;;;;;;;;;5146432;27;20052;-54
2021/12/22 03:21:30;;;;;;;47.35;21.85;;;;;;;;;;5144965;27;20054;-54
2021/12/22 03:23:56;;;;;;;40.72;21.38;;;;;;;;;;5146149;27;20043;-54
2021/12/22 03:26:23;;;;;;;40.70;20.92;;;;;;;;;;5145834;27;20071;-51
2021/12/22 03:28:50;;;;;;;43.70;21.60;;;;;;;;;;5145909;27;20043;-54
2021/12/22 03:31:16;;;;;;;37.05;21.58;;;;;;;;;;5145883;27;20198;-54
2021/12/22 03:33:43;;;;;;;37.15;20.00;;;;;;;;;;5145910;27;20107;-55
2021/12/22 03:36:09;;;;;;;44.85;22.40;;;;;;;;;;5145400;27;20152;-53
2021/12/22 03:38:37;;;;;;;42.22;22.40;;;;;;;;;;5146040;27;20072;-54
2021/12/22 03:41:04;;;;;;;36.25;21.20;;;;;;;;;;5145413;27;20107;-52
2021/12/22 03:43:30;;;;;;;38.42;20.17;;;;;;;;;;5146363;27;20043;-53
2021/12/22 03:45:56;;;;;;;40.80;20.48;;;;;;;;;;5145824;27;20043;-54
2021/12/22 03:48:24;;;;;;;38.88;19.80;;;;;;;;;;5145495;27;20039;-54
2021/12/22 03:50:50;;;;;;;31.48;18.25;;;;;;;;;;5145106;27;20047;-54
2021/12/22 03:53:17;;;;;;;40.05;21.08;;;;;;;;;;5146022;27;20054;-55
2021/12/22 03:55:43;;;;;;;36.20;20.52;;;;;;;;;;5145353;27;20110;-54
2021/12/22 03:58:09;;;;;;;40.80;21.15;;;;;;;;;;5145930;27;20103;-56
2021/12/22 04:00:36;;;;;;;41.00;18.98;;;;;;;;;;5145617;27;20047;-53
2021/12/22 04:03:03;;;;;;;37.92;20.42;;;;;;;;;;5145560;27;20043;-55
2021/12/22 04:05:29;;;;;;;38.08;20.25;;;;;;;;;;5145109;27;20078;-53
2021/12/22 04:07:56;;;;;;;51.47;22.95;;;;;;;;;;5145714;27;20070;-56
2021/12/22 04:10:23;;;;;;;38.85;22.33;;;;;;;;;;5145589;27;20035;-52
2021/12/22 04:12:53;;;;;;;45.03;22.20;;;;;;;;;;5145343;27;20104;-54
2021/12/22 04:15:20;;;;;;;43.20;21.95;;;;;;;;;;5145429;27;20602;-54
2021/12/22 04:17:46;;;;;;;39.92;23.00;;;;;;;;;;5145537;27;20043;-56
2021/12/22 04:20:13;;;;;;;40.03;23.58;;;;;;;;;;5144651;27;20082;-55
2021/12/22 04:22:39;;;;;;;45.55;24.17;;;;;;;;;;5145362;27;20039;-54
2021/12/22 04:25:07;;;;;;;49.97;25.92;;;;;;;;;;5145557;27;20051;-53
2021/12/22 04:27:33;;;;;;;50.25;26.75;;;;;;;;;;5145120;28;20051;-55
2021/12/22 04:30:00;;;;;;;53.30;26.17;;;;;;;;;;5145318;28;20348;-54
2021/12/22 04:32:26;;;;;;;47.10;26.55;;;;;;;;;;5145317;28;20093;-54
2021/12/22 04:34:52;;;;;;;47.80;26.10;;;;;;;;;;5145228;28;20043;-55
2021/12/22 04:37:18;;;;;;;58.38;26.05;;;;;;;;;;5144749;28;20039;-55
2021/12/22 04:39:44;;;;;;;51.40;25.27;;;;;;;;;;5145575;28;20047;-53
2021/12/22 04:42:10;;;;;;;56.13;26.65;;;;;;;;;;5144848;28;20465;-51
2021/12/22 04:44:36;;;;;;;50.47;27.63;;;;;;;;;;5145044;28;20047;-53
2021/12/22 04:47:03;;;;;;;48.45;27.85;;;;;;;;;;5144939;28;20560;-55
2021/12/22 04:49:29;;;;;;;53.67;27.58;;;;;;;;;;5145304;28;20127;-53
2021/12/22 04:51:56;;;;;;;53.35;27.10;;;;;;;;;;5144272;28;20107;-54
2021/12/22 04:56:53;;;;;;;44.38;24.80;;;;;;;;;;5144882;28;20043;-55
2021/12/22 04:59:19;;;;;;;49.67;26.25;;;;;;;;;;5145263;28;20049;-55
2021/12/22 05:01:45;;;;;;;50.08;25.95;;;;;;;;;;5144861;28;20043;-54
2021/12/22 05:04:11;;;;;;;43.45;24.27;;;;;;;;;;5145048;28;20047;-54
2021/12/22 05:06:37;;;;;;;49.15;25.30;;;;;;;;;;5126100;28;20073;-54
2021/12/22 05:09:04;;;;;;;52.53;24.80;;;;;;;;;;5145327;28;20438;-53
2021/12/22 05:11:31;;;;;;;46.28;24.60;;;;;;;;;;5144525;28;20237;-55
2021/12/22 05:13:57;;;;;;;47.17;24.95;;;;;;;;;;5145116;28;20074;-53
2021/12/22 05:16:23;;;;;;;45.20;24.40;;;;;;;;;;5144461;28;20047;-52
2021/12/22 05:21:22;;;;;;;49.40;23.80;;;;;;;;;;5144340;28;20102;-53
2021/12/22 05:23:57;;;;;;;37.55;21.20;;;;;;;;;;5145347;28;20078;-55
2021/12/22 05:26:25;;;;;;;40.15;21.63;;;;;;;;;;5129271;27;20493;-53
2021/12/22 05:28:52;;;;;;;37.03;21.75;;;;;;;;;;5148739;27;20236;-53
2021/12/22 05:31:18;;;;;;;39.35;21.38;;;;;;;;;;5147942;27;20105;-53
2021/12/22 05:33:44;;;;;;;35.15;20.45;;;;;;;;;;5148730;27;20104;-52
2021/12/22 05:36:10;;;;;;;39.38;21.15;;;;;;;;;;5147693;27;20068;-53
2021/12/22 05:38:36;;;;;;;37.15;21.27;;;;;;;;;;5148482;27;20075;-54
2021/12/22 05:41:03;;;;;;;42.60;22.98;;;;;;;;;;5147918;27;20058;-53
2021/12/22 05:43:29;;;;;;;40.42;20.90;;;;;;;;;;5148219;27;20066;-54
2021/12/22 05:45:55;;;;;;;41.38;22.30;;;;;;;;;;5148091;27;20066;-53
2021/12/22 05:48:22;;;;;;;46.72;21.33;;;;;;;;;;5147983;27;20039;-53
2021/12/22 05:50:51;;;;;;;41.00;22.20;;;;;;;;;;5147422;27;20574;-51
2021/12/22 05:53:17;;;;;;;46.63;22.35;;;;;;;;;;5148158;27;20054;-54
2021/12/22 05:55:44;;;;;;;40.15;21.67;;;;;;;;;;5147461;27;20050;-54
2021/12/22 05:58:10;;;;;;;44.25;22.40;;;;;;;;;;5147720;27;20039;-53
2021/12/22 06:00:36;;;;;;;40.80;23.20;;;;;;;;;;5147937;27;20107;-53
2021/12/22 06:03:02;;;;;;;46.10;22.10;;;;;;;;;;5129095;27;20047;-53
2021/12/22 06:05:29;;;;;;;46.90;22.70;;;;;;;;;;5147682;27;20046;-54
2021/12/22 06:07:55;;;;;;;45.42;24.60;;;;;;;;;;5147964;27;20135;-53
2021/12/22 06:10:21;;;;;;;50.28;23.48;;;;;;;;;;5147893;27;20043;-55
2021/12/22 06:12:47;;;;;;;43.80;23.02;;;;;;;;;;5147652;27;20047;-55
2021/12/22 06:15:13;;;;;;;42.92;23.38;;;;;;;;;;5147713;27;20125;-53
2021/12/22 06:17:39;;;;;;;41.08;21.80;;;;;;;;;;5147257;27;20619;-54
2021/12/22 06:20:06;;;;;;;49.72;22.55;;;;;;;;;;5147140;27;20100;-55
2021/12/22 06:22:34;;;;;;;39.53;22.58;;;;;;;;;;5126772;28;20044;-55
2021/12/22 06:25:00;;;;;;;39.38;22.65;;;;;;;;;;5126862;28;20046;-54
2021/12/22 06:27:27;;;;;;;41.28;21.50;;;;;;;;;;5141036;27;20463;-54
2021/12/22 06:29:53;;;;;;;37.05;21.05;;;;;;;;;;5147468;27;20047;-56
2021/12/22 06:32:19;;;;;;;40.03;21.60;;;;;;;;;;5147555;27;20090;-54
2021/12/22 06:34:45;;;;;;;37.88;21.13;;;;;;;;;;5147537;27;20472;-54
2021/12/22 06:37:13;;;;;;;44.28;22.45;;;;;;;;;;5144937;27;20039;-55
2021/12/22 06:39:39;;;;;;;38.25;21.65;;;;;;;;;;5145887;27;20066;-55
2021/12/22 06:42:08;;;;;;;39.05;20.48;;;;;;;;;;5141494;27;20041;-56
2021/12/22 06:44:34;;;;;;;37.97;20.33;;;;;;;;;;5146393;27;20597;-54
2021/12/22 06:47:00;;;;;;;34.58;20.67;;;;;;;;;;5143843;27;20047;-56
2021/12/22 06:49:26;;;;;;;38.90;20.98;;;;;;;;;;5145694;27;20047;-56
2021/12/22 06:51:52;;;;;;;39.20;21.15;;;;;;;;;;5141270;27;20502;-53
2021/12/22 06:54:18;;;;;;;42.38;20.52;;;;;;;;;;5145540;27;20116;-56
2021/12/22 06:56:44;;;;;;;38.05;19.90;;;;;;;;;;5143613;27;20075;-55
2021/12/22 06:59:13;;;;;;;41.35;19.30;;;;;;;;;;5142230;27;20047;-56
2021/12/22 07:01:39;;;;;;;37.67;20.20;;;;;;;;;;5145730;27;20118;-54
2021/12/22 07:04:07;;;;;;;37.17;18.63;;;;;;;;;;5145684;27;20047;-56
2021/12/22 07:06:33;;;;;;;35.08;19.45;;;;;;;;;;5144870;27;20082;-53
2021/12/22 07:08:59;;;;;;;43.08;19.92;;;;;;;;;;5145504;27;20046;-54
2021/12/22 07:11:26;;;;;;;47.63;22.23;;;;;;;;;;5144103;27;20039;-55
2021/12/22 07:13:53;;;;;;;38.47;19.73;;;;;;;;;;5145497;27;20142;-55
2021/12/22 07:16:19;;;;;;;47.90;20.48;;;;;;;;;;5144870;27;20039;-55
2021/12/22 07:18:45;;;;;;;40.58;19.90;;;;;;;;;;5144404;27;20224;-54
2021/12/22 07:21:11;;;;;;;39.38;20.23;;;;;;;;;;5140883;27;20031;-54
2021/12/22 07:23:37;;;;;;;38.45;18.98;;;;;;;;;;5145428;27;20054;-55
2021/12/22 07:26:04;;;;;;;40.25;19.55;;;;;;;;;;5144734;27;20051;-55
2021/12/22 07:28:30;;;;;;;39.88;19.58;;;;;;;;;;5145654;27;20043;-56
2021/12/22 07:30:56;;;;;;;43.00;19.70;;;;;;;;;;5145483;27;20076;-56
2021/12/22 07:33:22;;;;;;;41.42;18.55;;;;;;;;;;5129299;27;20079;-56
2021/12/22 07:35:58;;;;;;;43.22;19.67;;;;;;;;;;5138556;27;20053;-55
2021/12/22 07:38:43;;;;;;;41.00;19.27;;;;;;;;;;5142704;27;20096;-55
2021/12/22 07:41:10;;;;;;;41.50;18.33;;;;;;;;;;5144004;27;20050;-55
2021/12/22 07:43:36;;;;;;;35.42;17.10;;;;;;;;;;5145238;27;20043;-54
2021/12/22 07:46:03;;;;;;;34.78;17.10;;;;;;;;;;5126841;27;20478;-54
2021/12/22 07:48:30;;;;;;;35.08;17.27;;;;;;;;;;5144769;27;20065;-55
2021/12/22 07:50:56;;;;;;;36.42;17.83;;;;;;;;;;5144485;27;20118;-54
2021/12/22 07:53:22;;;;;;;32.20;15.32;;;;;;;;;;5145138;27;20047;-54
2021/12/22 07:55:52;;;;;;;39.50;17.63;;;;;;;;;;5145177;27;20640;-55
2021/12/22 07:58:18;;;;;;;30.85;16.48;;;;;;;;;;5126438;27;20067;-56
2021/12/22 08:00:44;;;;;;;29.88;16.98;;;;;;;;;;5144906;27;20043;-53
2021/12/22 08:03:12;;;;;;;31.02;16.25;;;;;;;;;;5145109;27;20051;-57
2021/12/22 08:05:38;;;;;;;31.77;16.75;;;;;;;;;;5143608;27;20061;-54
2021/12/22 08:08:04;;;;;;;29.02;16.48;;;;;;;;;;5143776;27;20035;-55
2021/12/22 08:10:31;;;;;;;29.80;16.58;;;;;;;;;;5142049;27;20043;-55
2021/12/22 08:12:57;;;;;;;33.72;15.85;;;;;;;;;;5143482;27;20047;-55
2021/12/22 08:15:23;;;;;;;28.95;15.10;;;;;;;;;;5145316;27;20102;-56
2021/12/22 08:17:50;;;;;;;29.55;16.52;;;;;;;;;;5144956;27;20096;-56
2021/12/22 08:20:17;;;;;;;27.55;15.32;;;;;;;;;;5143588;27;20043;-55
2021/12/22 08:22:43;;;;;;;32.25;15.40;;;;;;;;;;5144530;27;20043;-55
2021/12/22 08:25:09;;;;;;;29.58;14.27;;;;;;;;;;5141096;27;20040;-55
2021/12/22 08:27:35;;;;;;;29.13;14.15;;;;;;;;;;5143170;28;20053;-56
2021/12/22 08:30:01;;;;;;;29.50;14.18;;;;;;;;;;5143313;28;20065;-54
2021/12/22 08:32:27;;;;;;;34.00;15.73;;;;;;;;;;5143247;28;20064;-55
2021/12/22 08:34:56;;;;;;;24.83;13.68;;;;;;;;;;5138754;28;20047;-56
2021/12/22 08:40:08;;;;;;;24.27;13.40;;;;;;;;;;5142523;28;20039;-56
2021/12/22 08:42:34;;;;;;;31.00;13.80;;;;;;;;;;5143643;28;20406;-55
2021/12/22 08:45:01;;;;;;;26.92;13.35;;;;;;;;;;5144122;28;20039;-56
2021/12/22 08:47:27;;;;;;;26.02;13.75;;;;;;;;;;5143496;28;20045;-55
2021/12/22 08:49:53;;;;;;;29.17;15.00;;;;;;;;;;5144103;28;20039;-54
2021/12/22 08:52:19;;;;;;;26.90;14.07;;;;;;;;;;5144950;28;20051;-58
2021/12/22 08:54:45;;;;;;;29.67;15.07;;;;;;;;;;5126447;28;20519;-54
2021/12/22 08:57:11;;;;;;;25.50;14.50;;;;;;;;;;5143167;28;20036;-57
2021/12/22 08:59:37;;;;;;;27.58;15.27;;;;;;;;;;5132092;28;20059;-56
2021/12/22 09:02:04;;;;;;;26.40;14.63;;;;;;;;;;5146913;27;20458;-55
2021/12/22 09:04:30;;;;;;;26.20;14.05;;;;;;;;;;5146346;27;20035;-56
2021/12/22 09:06:56;;;;;;;30.05;14.82;;;;;;;;;;5146949;27;20088;-56
2021/12/22 09:09:23;;;;;;;28.50;13.90;;;;;;;;;;5147399;27;20057;-56
2021/12/22 09:11:49;;;;;;;23.58;13.77;;;;;;;;;;5146420;27;20043;-55
2021/12/22 09:14:16;;;;;;;26.80;12.93;;;;;;;;;;5144218;27;20047;-56
2021/12/22 09:16:43;;;;;;;28.40;13.88;;;;;;;;;;5146919;27;20087;-57
2021/12/22 09:19:10;;;;;;;25.33;14.00;;;;;;;;;;5148612;27;20078;-56
2021/12/22 09:21:36;;;;;;;28.73;13.75;;;;;;;;;;5148474;27;20043;-54
2021/12/22 09:24:03;;;;;;;25.15;12.80;;;;;;;;;;5147400;27;20085;-57
2021/12/22 09:26:30;;;;;;;24.88;13.20;;;;;;;;;;5145733;27;20172;-58
2021/12/22 09:28:56;;;;;;;35.17;14.70;;;;;;;;;;5136315;27;20125;-56
2021/12/22 09:31:22;;;;;;;27.17;14.27;;;;;;;;;;5141226;27;20075;-55
2021/12/22 09:33:49;;;;;;;24.27;13.57;;;;;;;;;;5146648;27;20062;-54
2021/12/22 09:36:16;;;;;;;27.17;14.00;;;;;;;;;;5142979;27;21753;-57
2021/12/22 09:38:42;;;;;;;28.15;13.02;;;;;;;;;;5145803;27;20066;-56
2021/12/22 09:41:09;;;;;;;25.45;12.30;;;;;;;;;;5145489;27;20039;-56
2021/12/22 09:43:35;;;;;;;28.43;13.67;;;;;;;;;;5142017;27;20066;-55
2021/12/22 09:46:08;;;;;;;29.33;13.55;;;;;;;;;;5146646;27;20122;-56
2021/12/22 09:53:33;;;;;;;29.92;13.95;;;;;;;;;;5144420;27;20085;-54
2021/12/22 09:55:59;;;;;;;22.17;13.45;;;;;;;;;;5126367;27;20077;-55
2021/12/22 09:58:26;;;;;;;26.63;14.40;;;;;;;;;;5140905;27;20105;-56
2021/12/22 10:00:53;;;;;;;25.43;13.10;;;;;;;;;;5146037;27;20046;-56
2021/12/22 10:03:20;;;;;;;30.13;14.18;;;;;;;;;;5145794;27;20301;-56
2021/12/22 10:05:47;;;;;;;21.45;13.10;;;;;;;;;;5144343;27;20039;-57
2021/12/22 10:08:15;;;;;;;21.33;11.70;;;;;;;;;;5145878;27;20062;-57
2021/12/22 10:10:46;;;;;;;28.77;12.93;;;;;;;;;;5129728;27;20046;-56
2021/12/22 10:13:17;;;;;;;25.65;10.98;;;;;;;;;;5144963;27;20114;-57
2021/12/22 10:15:43;;;;;;;22.92;12.73;;;;;;;;;;5145500;27;20047;-56
2021/12/22 10:18:11;;;;;;;20.65;11.57;;;;;;;;;;5147073;27;20050;-57
2021/12/22 10:20:38;;;;;;;22.00;11.55;;;;;;;;;;5143316;27;20051;-55
2021/12/22 10:23:18;;;;;;;23.10;13.53;;;;;;;;;;5145018;27;20047;-57
2021/12/22 10:25:49;;;;;;;25.60;12.05;;;;;;;;;;5142657;27;20042;-56
2021/12/22 10:28:18;;;;;;;26.65;12.52;;;;;;;;;;5144351;27;20046;-56
2021/12/22 10:30:44;;;;;;;27.17;12.10;;;;;;;;;;5142298;27;20087;-55
2021/12/22 10:33:18;;;;;;;23.92;12.63;;;;;;;;;;5144246;27;20043;-55
2021/12/22 10:35:48;;;;;;;25.98;12.30;;;;;;;;;;5141849;27;20514;-55
2021/12/22 10:38:16;;;;;;;23.23;12.73;;;;;;;;;;5142592;27;20093;-57
2021/12/22 10:40:44;;;;;;;21.27;11.68;;;;;;;;;;5141634;27;20035;-56
2021/12/22 10:43:15;;;;;;;20.35;12.35;;;;;;;;;;5142499;27;20047;-55
2021/12/22 10:45:41;;;;;;;22.23;12.32;;;;;;;;;;5145575;27;20453;-57
2021/12/22 10:50:55;;;;;;;20.05;11.32;;;;;;;;;;5144759;27;20043;-57
2021/12/22 10:53:21;;;;;;;19.08;11.07;;;;;;;;;;5145131;27;20047;-56
2021/12/22 10:55:48;;;;;;;19.70;11.23;;;;;;;;;;5143138;27;20050;-57
2021/12/22 10:58:28;;;;;;;20.75;12.10;;;;;;;;;;5140732;27;20100;-56
2021/12/22 11:01:16;;;;;;;20.92;11.57;;;;;;;;;;5143350;27;20031;-55
2021/12/22 11:03:49;;;;;;;21.80;11.45;;;;;;;;;;5143656;27;20043;-56
2021/12/22 11:06:19;;;;;;;19.75;10.95;;;;;;;;;;5126824;27;20524;-56
2021/12/22 11:08:55;;;;;;;17.90;11.57;;;;;;;;;;5138349;27;20089;-58
2021/12/22 11:11:21;;;;;;;22.30;10.95;;;;;;;;;;5145251;27;20123;-57
2021/12/22 11:14:01;;;;;;;19.42;11.07;;;;;;;;;;5146005;27;20039;-55
2021/12/22 11:16:27;;;;;;;25.17;10.48;;;;;;;;;;5145633;27;20058;-57
2021/12/22 11:18:53;;;;;;;22.23;10.85;;;;;;;;;;5144297;27;20122;-56
2021/12/22 11:21:30;;;;;;;25.80;10.80;;;;;;;;;;5144482;27;20047;-57
2021/12/22 11:23:56;;;;;;;21.42;11.15;;;;;;;;;;5134082;27;20048;-57
2021/12/22 11:26:22;;;;;;;20.58;11.73;;;;;;;;;;5145997;27;20118;-57
2021/12/22 11:28:49;;;;;;;23.52;12.07;;;;;;;;;;5146168;27;20082;-56
2021/12/22 11:31:15;;;;;;;19.55;11.27;;;;;;;;;;5137912;27;20117;-55
2021/12/22 11:33:42;;;;;;;21.15;11.30;;;;;;;;;;5135993;27;20035;-56
2021/12/22 11:36:09;;;;;;;18.17;11.15;;;;;;;;;;5125827;27;20035;-57
2021/12/22 11:38:35;;;;;;;22.67;10.25;;;;;;;;;;5131720;27;20047;-56
2021/12/22 11:41:14;;;;;;;21.90;10.98;;;;;;;;;;5146019;27;20068;-56
2021/12/22 11:43:41;;;;;;;19.58;9.48;;;;;;;;;;5142904;27;20398;-57
2021/12/22 11:46:08;;;;;;;17.50;9.80;;;;;;;;;;5140647;27;20060;-55
2021/12/22 11:48:35;;;;;;;13.50;9.00;;;;;;;;;;5143001;27;20126;-56
2021/12/22 11:51:01;;;;;;;16.10;9.80;;;;;;;;;;5144961;27;20276;-56
2021/12/22 11:53:47;;;;;;;18.08;10.02;;;;;;;;;;5145092;27;20062;-56
2021/12/22 11:56:33;;;;;;;16.48;9.48;;;;;;;;;;5144110;27;20039;-57
2021/12/22 11:58:59;;;;;;;15.48;9.88;;;;;;;;;;5145612;27;20129;-57
2021/12/22 12:01:26;;;;;;;20.60;9.68;;;;;;;;;;5144931;27;20074;-57
2021/12/22 12:04:10;;;;;;;14.48;8.75;;;;;;;;;;5142737;27;20092;-56
2021/12/22 12:06:52;;;;;;;16.30;9.63;;;;;;;;;;5142640;27;20047;-56
2021/12/22 12:09:22;;;;;;;16.88;9.73;;;;;;;;;;5144142;27;20131;-56
2021/12/22 12:11:56;;;;;;;18.48;10.25;;;;;;;;;;5142428;27;20063;-56
2021/12/22 12:14:34;;;;;;;16.30;9.13;;;;;;;;;;5144712;27;20039;-58
2021/12/22 12:23:14;;;;;;;16.98;9.40;;;;;;;;;;5144605;27;20077;-58
2021/12/22 12:25:40;;;;;;;16.17;9.55;;;;;;;;;;5142853;27;20045;-56
2021/12/22 12:28:17;;;;;;;17.02;9.35;;;;;;;;;;5143092;27;20062;-57
2021/12/22 12:30:45;;;;;;;19.38;11.43;;;;;;;;;;5137340;27;20047;-57
2021/12/22 12:33:13;;;;;;;17.25;10.43;;;;;;;;;;5139413;28;20043;-57
2021/12/22 12:35:48;;;;;;;19.27;10.18;;;;;;;;;;5145007;27;20103;-57
2021/12/22 12:38:24;;;;;;;15.10;10.15;;;;;;;;;;5144520;27;20122;-57
2021/12/22 12:40:57;;;;;;;18.08;10.20;;;;;;;;;;5145804;27;20047;-57
2021/12/22 12:43:48;;;;;;;16.73;10.50;;;;;;;;;;5143846;27;20104;-57
2021/12/22 12:46:37;;;;;;;19.63;9.35;;;;;;;;;;5145096;27;20043;-56
2021/12/22 12:49:03;;;;;;;15.75;8.95;;;;;;;;;;5145632;27;20078;-56
2021/12/22 12:51:33;;;;;;;17.42;10.68;;;;;;;;;;5135722;27;20046;-56
2021/12/22 12:54:09;;;;;;;14.93;8.52;;;;;;;;;;5137532;27;20055;-57
2021/12/22 12:56:37;;;;;;;15.20;8.90;;;;;;;;;;5144552;27;20067;-56
2021/12/22 12:59:04;;;;;;;16.05;10.45;;;;;;;;;;5145894;27;20098;-55
2021/12/22 13:01:30;;;;;;;;;;;;;;;;;;5143500;27;20047;-56
2021/12/22 13:03:57;;;;;;;17.77;9.00;;;;;;;;;;5141474;27;19974;-57
2021/12/22 13:06:23;;;;;;;18.55;9.60;;;;;;;;;;5141121;27;20043;-57
2021/12/22 13:08:49;;;;;;;14.07;8.70;;;;;;;;;;5142392;27;20102;-55
2021/12/22 13:11:15;;;;;;;16.02;8.90;;;;;;;;;;5137607;27;20039;-56
2021/12/22 13:15:46;;;;;;;14.15;8.98;;;;;;;;;;5145582;27;20039;-55
2021/12/22 13:16:42;;;;;;;15.40;8.80;;;;;;;;;;5143738;27;20073;-57
2021/12/22 13:19:11;;;;;;;15.85;9.35;;;;;;;;;;5146589;27;20047;-56
2021/12/22 13:21:37;;;;;;;14.73;9.57;;;;;;;;;;5145420;27;20066;-56
2021/12/22 13:24:03;;;;;;;13.07;8.98;;;;;;;;;;5126394;27;20051;-56
2021/12/22 13:26:30;;;;;;;13.57;9.15;;;;;;;;;;5146208;27;20122;-54
2021/12/22 13:28:56;;;;;;;12.45;8.57;;;;;;;;;;5128245;27;20422;-55
2021/12/22 13:31:22;;;;;;;14.38;9.25;;;;;;;;;;5147210;27;20075;-55
2021/12/22 13:34:01;;;;;;;20.40;8.80;;;;;;;;;;5144605;27;20446;-56
2021/12/22 13:36:28;;;;;;;15.75;10.18;;;;;;;;;;5143926;27;20780;-55
2021/12/22 13:38:57;;;;;;;22.90;9.40;;;;;;;;;;5145673;27;20058;-55
2021/12/22 13:41:29;;;;;;;17.02;9.60;;;;;;;;;;5147544;27;20240;-57
2021/12/22 13:44:00;;;;;;;19.33;8.98;;;;;;;;;;5142267;27;20103;-66
2021/12/22 13:46:28;;;;;;;15.63;8.52;;;;;;;;;;5147689;27;20039;-56
2021/12/22 13:48:54;;;;;;;;;;;;;;;;;;5142429;27;20050;-56
2021/12/22 13:51:27;;;;;;;13.30;8.43;;;;;;;;;;5144240;27;19973;-55
2021/12/22 13:53:54;;;;;;;14.18;9.23;;;;;;;;;;5142867;27;20063;-55
2021/12/22 13:56:21;;;;;;;16.90;9.93;;;;;;;;;;5144305;27;20070;-56
2021/12/22 13:58:52;;;;;;;16.10;10.13;;;;;;;;;;5141765;27;20046;-54
2021/12/22 14:01:22;;;;;;;15.88;9.80;;;;;;;;;;5144441;27;20027;-56
2021/12/22 14:03:51;;;;;;;15.75;10.13;;;;;;;;;;5147284;27;20043;-56
2021/12/22 14:06:20;;;;;;;16.80;10.25;;;;;;;;;;5145718;27;20036;-55
2021/12/22 14:08:47;;;;;;;14.52;9.73;;;;;;;;;;5146315;27;20066;-53
2021/12/22 14:11:31;;;;;;;16.60;10.02;;;;;;;;;;5145488;27;20035;-56
2021/12/22 14:14:17;;;;;;;16.02;9.55;;;;;;;;;;5145264;27;20077;-55
2021/12/22 14:16:43;;;;;;;19.73;9.77;;;;;;;;;;5144313;27;20039;-57
2021/12/22 14:19:16;;;;;;;18.05;10.65;;;;;;;;;;5140453;27;20071;-56
2021/12/22 14:21:42;;;;;;;18.55;11.05;;;;;;;;;;5145626;27;20043;-54
2021/12/22 14:24:09;;;;;;;17.85;10.48;;;;;;;;;;5145969;27;20055;-57
2021/12/22 14:26:45;;;;;;;18.67;11.63;;;;;;;;;;5143924;27;20043;-55
2021/12/22 14:29:11;;;;;;;20.90;11.27;;;;;;;;;;5143385;27;20489;-56
2021/12/22 14:31:53;;;;;;;17.80;10.52;;;;;;;;;;5145851;27;20121;-54
2021/12/22 14:34:19;;;;;;;22.52;11.10;;;;;;;;;;5144665;27;20047;-55
2021/12/22 14:36:46;;;;;;;21.30;11.40;;;;;;;;;;5142562;27;20043;-53
2021/12/22 14:39:13;;;;;;;20.25;11.93;;;;;;;;;;5144158;27;20035;-54
2021/12/22 14:41:40;;;;;;;25.03;11.37;;;;;;;;;;5144839;27;20074;-55
2021/12/22 14:44:20;;;;;;;24.55;12.35;;;;;;;;;;5145433;27;20292;-56
2021/12/22 14:46:46;;;;;;;18.88;10.98;;;;;;;;;;5145375;27;20050;-56
2021/12/22 14:49:17;;;;;;;25.48;12.80;;;;;;;;;;5144514;27;20038;-56
2021/12/22 14:51:45;;;;;;;21.55;11.35;;;;;;;;;;5142438;27;20053;-55
2021/12/22 14:54:11;;;;;;;22.52;13.00;;;;;;;;;;5139956;27;20043;-54
2021/12/22 14:56:48;;;;;;;23.20;11.95;;;;;;;;;;5125129;27;20043;-54
2021/12/22 14:59:15;;;;;;;21.33;11.90;;;;;;;;;;5144131;27;20111;-56
2021/12/22 15:01:41;;;;;;;21.93;11.63;;;;;;;;;;5145551;27;20047;-55
2021/12/22 15:04:07;;;;;;;23.45;13.23;;;;;;;;;;5145574;27;20039;-54